Time;durP1;ratioP1;P1;durP2;ratioP2;P2;SDS_P1;SDS_P2;PMS_P1;PMS_P2;Temp;Humidity;BMP_temperature;BMP_pressure;BME280_temperature;BME280_humidity;BME280_pressure;Samples;Min_cycle;Max_cycle;Signal;HPM_P1;HPM_P2
2022/01/28 00:04:47;;;;;;;4.68;3.33;;;3.30;99.90;;;;;;5058290;28;20025;-81
2022/01/28 00:07:13;;;;;;;7.15;4.22;;;3.30;99.90;;;;;;5058009;28;20017;-82
2022/01/28 00:09:39;;;;;;;7.00;4.05;;;3.30;99.90;;;;;;5062628;28;20046;-82
2022/01/28 00:12:07;;;;;;;6.13;4.10;;;3.30;99.90;;;;;;5074747;28;20033;-82
2022/01/28 00:15:01;;;;;;;5.32;3.90;;;3.30;99.90;;;;;;5058966;28;20017;-81
2022/01/28 00:38:44;;;;;;;7.70;4.78;;;3.40;99.90;;;;;;5057395;28;20068;-82
2022/01/28 00:41:10;;;;;;;6.60;5.05;;;3.40;99.90;;;;;;5066128;28;20039;-82
2022/01/28 00:43:36;;;;;;;7.03;4.43;;;3.40;99.90;;;;;;5042890;28;20037;-82
2022/01/28 00:46:02;;;;;;;6.18;3.85;;;3.40;99.90;;;;;;5045464;28;20021;-82
2022/01/28 00:48:27;;;;;;;5.43;3.78;;;3.40;99.90;;;;;;5050082;28;20072;-81
2022/01/28 00:50:53;;;;;;;6.10;4.10;;;3.40;99.90;;;;;;5068353;28;20079;-81
2022/01/28 00:53:19;;;;;;;5.88;3.67;;;3.40;99.90;;;;;;5068621;28;20025;-82
2022/01/28 00:55:45;;;;;;;4.30;3.05;;;3.40;99.90;;;;;;5067482;28;20029;-81
2022/01/28 00:58:10;;;;;;;5.03;3.13;;;3.40;99.90;;;;;;5049260;28;20092;-81
2022/01/28 01:00:36;;;;;;;5.28;3.83;;;3.30;99.90;;;;;;5046341;28;20107;-82
2022/01/28 01:03:02;;;;;;;5.72;4.03;;;3.40;99.90;;;;;;5069869;28;20032;-82
2022/01/28 01:05:32;;;;;;;4.07;3.28;;;3.30;99.90;;;;;;5089923;28;20029;-81
2022/01/28 01:07:59;;;;;;;5.35;3.90;;;3.30;99.90;;;;;;5088915;28;20092;-81
2022/01/28 01:10:26;;;;;;;5.68;4.18;;;3.20;99.90;;;;;;5078885;28;20028;-81
2022/01/28 01:12:52;;;;;;;5.38;3.63;;;3.20;99.90;;;;;;5056540;28;20029;-80
2022/01/28 01:15:22;;;;;;;5.65;3.38;;;3.20;99.90;;;;;;5068314;28;20017;-80
2022/01/28 01:23:24;;;;;;;6.07;4.18;;;3.20;99.90;;;;;;5080246;28;20033;-81
2022/01/28 01:26:09;;;;;;;6.90;4.30;;;3.10;99.90;;;;;;5088959;28;20051;-80
2022/01/28 01:28:34;;;;;;;5.93;4.50;;;3.20;99.90;;;;;;5085354;28;20422;-80
2022/01/28 01:31:03;;;;;;;6.30;4.18;;;3.10;99.90;;;;;;5066307;28;20061;-80
2022/01/28 01:33:32;;;;;;;6.20;4.28;;;3.10;99.90;;;;;;5069972;28;20043;-80
2022/01/28 01:35:59;;;;;;;7.45;5.07;;;3.00;99.90;;;;;;5066293;28;20024;-80
2022/01/28 01:38:27;;;;;;;7.18;4.65;;;3.00;99.90;;;;;;5066391;28;20025;-81
2022/01/28 01:40:58;;;;;;;5.75;4.05;;;3.00;99.90;;;;;;5046331;28;20178;-81
2022/01/28 01:53:51;;;;;;;11.38;5.97;;;2.70;99.90;;;;;;5078195;28;20092;-80
2022/01/28 01:56:19;;;;;;;8.95;4.90;;;2.60;99.90;;;;;;5090658;28;20094;-81
2022/01/28 01:58:45;;;;;;;8.85;5.30;;;2.60;99.90;;;;;;5089638;28;20023;-81
2022/01/28 02:01:11;;;;;;;6.30;4.70;;;2.50;99.90;;;;;;5088891;28;20036;-81
2022/01/28 02:03:37;;;;;;;9.70;4.97;;;2.50;99.90;;;;;;5063023;28;20020;-81
2022/01/28 02:06:04;;;;;;;8.18;5.32;;;2.50;99.90;;;;;;5087736;28;20048;-81
2022/01/28 02:08:34;;;;;;;5.50;4.22;;;2.40;99.90;;;;;;5091548;28;20039;-81
2022/01/28 02:11:01;;;;;;;8.68;5.22;;;2.50;99.90;;;;;;5072841;28;20080;-81
2022/01/28 02:13:33;;;;;;;8.07;5.07;;;2.50;99.90;;;;;;5075986;28;20020;-81
2022/01/28 02:16:00;;;;;;;;;;;2.50;99.90;;;;;;5057042;28;20022;-81
2022/01/28 02:18:26;;;;;;;7.53;4.60;;;2.50;99.90;;;;;;5048392;28;19992;-81
2022/01/28 02:20:55;;;;;;;8.52;6.10;;;2.50;99.90;;;;;;5021973;28;20074;-81
2022/01/28 02:23:22;;;;;;;8.38;4.97;;;2.40;99.90;;;;;;5040878;28;20032;-81
2022/01/28 02:25:48;;;;;;;12.00;5.60;;;2.30;99.90;;;;;;5060558;28;20055;-81
2022/01/28 02:28:19;;;;;;;8.52;5.75;;;2.40;99.90;;;;;;5061496;28;20023;-81
2022/01/28 02:30:45;;;;;;;8.50;5.38;;;2.40;99.90;;;;;;5062606;28;20017;-81
2022/01/28 02:33:20;;;;;;;9.07;5.10;;;2.50;99.90;;;;;;5062046;28;20075;-81
2022/01/28 02:35:47;;;;;;;8.85;4.93;;;2.50;99.90;;;;;;5061332;28;20104;-81
2022/01/28 02:38:15;;;;;;;7.93;5.35;;;2.60;99.90;;;;;;5060928;28;20091;-81
2022/01/28 02:40:46;;;;;;;9.85;5.80;;;2.60;99.90;;;;;;5059306;28;20021;-81
2022/01/28 02:45:49;;;;;;;13.90;6.20;;;2.70;99.90;;;;;;5070968;28;20025;-81
2022/01/28 02:48:22;;;;;;;9.90;5.75;;;2.70;99.90;;;;;;5061331;28;20041;-81
2022/01/28 02:54:18;;;;;;;9.75;5.43;;;2.80;99.90;;;;;;5080108;28;20027;-80
2022/01/28 02:58:57;;;;;;;10.18;5.43;;;2.90;99.90;;;;;;5087902;28;20016;-81
2022/01/28 03:01:23;;;;;;;9.38;5.50;;;2.90;99.90;;;;;;5077099;28;20052;-80
2022/01/28 03:03:51;;;;;;;9.65;5.00;;;2.90;99.90;;;;;;5077039;28;20477;-81
2022/01/28 03:06:19;;;;;;;7.45;4.82;;;3.00;99.90;;;;;;5047478;28;20472;-81
2022/01/28 03:09:15;;;;;;;7.45;4.70;;;2.90;99.90;;;;;;5039667;28;20151;-81
2022/01/28 03:11:44;;;;;;;8.93;5.40;;;2.90;99.90;;;;;;5056791;28;20094;-81
2022/01/28 03:17:01;;;;;;;7.57;4.35;;;3.00;99.90;;;;;;5070146;28;20037;-81
2022/01/28 03:19:39;;;;;;;7.35;5.00;;;3.10;99.90;;;;;;5077784;28;20101;-81
2022/01/28 03:22:05;;;;;;;8.50;5.10;;;3.10;99.90;;;;;;5077112;28;20418;-80
2022/01/28 03:24:31;;;;;;;6.78;4.68;;;3.10;99.90;;;;;;5077931;28;20097;-81
2022/01/28 03:27:03;;;;;;;7.15;4.57;;;3.10;99.90;;;;;;5059301;28;20067;-81
2022/01/28 03:29:29;;;;;;;10.68;5.80;;;3.00;99.90;;;;;;5077886;28;20076;-81
2022/01/28 03:31:54;;;;;;;8.55;4.63;;;3.00;99.90;;;;;;5078157;28;20032;-81
2022/01/28 03:34:20;;;;;;;6.85;4.80;;;3.00;99.90;;;;;;5078537;28;20027;-81
2022/01/28 03:36:46;;;;;;;9.90;4.70;;;3.00;99.90;;;;;;5077572;28;20075;-81
2022/01/28 03:39:12;;;;;;;7.82;4.57;;;3.00;99.90;;;;;;5077730;28;20028;-81
2022/01/28 03:41:38;;;;;;;9.25;4.95;;;3.00;99.90;;;;;;5077406;28;20033;-80
2022/01/28 03:44:05;;;;;;;9.13;5.18;;;3.00;99.90;;;;;;5058222;28;20036;-80
2022/01/28 03:46:31;;;;;;;8.65;5.47;;;3.00;99.90;;;;;;5044083;28;20036;-80
2022/01/28 03:48:57;;;;;;;7.93;4.93;;;3.00;99.90;;;;;;5078807;28;20033;-81
2022/01/28 03:51:23;;;;;;;11.10;5.18;;;3.10;99.90;;;;;;5078754;28;20016;-81
2022/01/28 03:53:49;;;;;;;7.07;4.68;;;3.10;99.90;;;;;;5080134;28;20549;-80
2022/01/28 03:56:16;;;;;;;7.30;4.97;;;3.20;99.90;;;;;;5088710;28;20044;-81
2022/01/28 03:58:42;;;;;;;7.68;4.82;;;3.10;99.90;;;;;;5052593;28;20036;-82
2022/01/28 04:01:23;;;;;;;6.57;4.43;;;3.20;99.90;;;;;;5048897;28;20124;-81
2022/01/28 04:11:56;;;;;;;7.75;4.63;;;3.20;99.90;;;;;;5043053;28;20037;-81
2022/01/28 04:19:36;;;;;;;6.93;4.22;;;3.20;99.90;;;;;;5076506;28;20043;-80
2022/01/28 04:22:03;;;;;;;11.63;5.28;;;3.20;99.90;;;;;;5076697;28;20062;-80
2022/01/28 04:24:29;;;;;;;8.07;4.47;;;3.10;99.90;;;;;;5076888;28;20017;-81
2022/01/28 04:26:54;;;;;;;6.20;4.65;;;3.10;99.90;;;;;;5077115;28;20028;-81
2022/01/28 04:29:20;;;;;;;6.75;4.03;;;3.10;99.90;;;;;;5062868;28;20032;-81
2022/01/28 04:31:47;;;;;;;7.50;4.30;;;3.10;99.90;;;;;;5039036;28;20048;-80
2022/01/28 04:34:15;;;;;;;6.00;4.03;;;3.10;99.90;;;;;;5057336;28;20017;-81
2022/01/28 04:36:55;;;;;;;6.22;4.60;;;3.10;99.90;;;;;;5056945;28;20448;-81
2022/01/28 04:39:29;;;;;;;8.25;4.28;;;3.10;99.90;;;;;;5067865;28;20025;-80
2022/01/28 04:42:05;;;;;;;8.93;4.55;;;3.10;99.90;;;;;;5074168;28;20029;-82
2022/01/28 04:45:19;;;;;;;8.02;4.43;;;3.10;99.90;;;;;;5057125;28;20686;-80
2022/01/28 04:50:01;;;;;;;6.65;4.47;;;3.20;99.90;;;;;;5069897;28;20021;-81
2022/01/28 05:00:17;;;;;;;5.83;4.23;;;3.10;99.90;;;;;;5068770;28;20056;-80
2022/01/28 05:17:07;;;;;;;8.10;4.65;;;3.10;99.90;;;;;;5055890;28;20044;-81
2022/01/28 05:27:14;;;;;;;7.22;4.70;;;3.10;99.90;;;;;;5039225;28;20043;-81
2022/01/28 05:29:39;;;;;;;7.40;4.35;;;3.10;99.90;;;;;;5038764;28;20105;-80
2022/01/28 05:32:07;;;;;;;7.65;4.47;;;3.00;99.90;;;;;;5060802;28;20408;-80
2022/01/28 05:34:33;;;;;;;7.85;4.50;;;3.10;99.90;;;;;;5043606;28;20025;-81
2022/01/28 05:36:59;;;;;;;7.80;4.15;;;3.10;99.90;;;;;;5041849;28;20031;-80
2022/01/28 05:39:24;;;;;;;5.88;4.38;;;3.10;99.90;;;;;;5042894;28;20029;-82
2022/01/28 05:41:51;;;;;;;7.80;4.72;;;3.20;99.90;;;;;;5081837;22;21952;-81
2022/01/28 05:44:18;;;;;;;5.97;4.15;;;3.20;99.90;;;;;;5021893;28;20038;-80
2022/01/28 05:46:45;;;;;;;7.68;4.45;;;3.20;99.90;;;;;;5025561;28;20026;-80
2022/01/28 05:49:13;;;;;;;6.18;4.38;;;3.20;99.90;;;;;;5024300;28;20085;-80
2022/01/28 05:51:39;;;;;;;8.10;4.55;;;3.20;99.90;;;;;;5020753;28;20041;-80
2022/01/28 05:54:04;;;;;;;7.03;4.38;;;3.10;99.90;;;;;;5028843;28;20034;-80
2022/01/28 05:56:31;;;;;;;10.63;5.10;;;3.10;99.90;;;;;;5027321;28;20037;-82
2022/01/28 05:58:58;;;;;;;7.68;4.63;;;3.00;99.90;;;;;;5026902;28;20060;-80
2022/01/28 06:01:25;;;;;;;8.20;4.60;;;2.90;99.90;;;;;;5029262;28;20017;-80
2022/01/28 06:03:51;;;;;;;6.03;4.45;;;2.80;99.90;;;;;;5028280;28;20029;-80
2022/01/28 06:06:20;;;;;;;6.38;4.47;;;2.70;99.90;;;;;;5028221;28;20022;-81
2022/01/28 06:08:52;;;;;;;9.95;5.10;;;2.70;99.90;;;;;;5047661;28;20482;-81
2022/01/28 06:11:19;;;;;;;8.40;4.78;;;2.80;99.90;;;;;;5044648;28;20085;-80
2022/01/28 06:13:46;;;;;;;9.30;4.22;;;2.80;99.90;;;;;;5056451;28;20068;-79
2022/01/28 06:16:14;;;;;;;7.53;4.03;;;2.80;99.90;;;;;;5051604;28;20048;-84
2022/01/28 06:18:40;;;;;;;7.35;4.43;;;2.80;99.90;;;;;;5043416;28;20014;-83
2022/01/28 06:21:06;;;;;;;8.00;4.00;;;2.90;99.90;;;;;;5044635;28;20052;-80
2022/01/28 06:23:32;;;;;;;6.97;4.60;;;3.00;99.90;;;;;;5026909;28;20026;-80
2022/01/28 06:25:58;;;;;;;7.53;3.67;;;3.00;99.90;;;;;;5040830;28;20360;-82
2022/01/28 06:28:24;;;;;;;6.43;4.05;;;3.00;99.90;;;;;;5040394;28;20037;-81
2022/01/28 06:30:50;;;;;;;6.35;4.03;;;3.00;99.90;;;;;;5032915;28;20017;-82
2022/01/28 06:33:16;;;;;;;6.00;3.85;;;2.90;99.90;;;;;;5042120;28;20493;-82
2022/01/28 06:35:45;;;;;;;4.93;3.25;;;2.90;99.90;;;;;;5041943;28;20034;-81
2022/01/28 06:38:12;;;;;;;6.03;4.43;;;3.00;99.90;;;;;;5023230;28;20025;-82
2022/01/28 06:40:38;;;;;;;7.65;4.00;;;3.00;99.90;;;;;;5041614;28;20022;-82
2022/01/28 06:43:07;;;;;;;9.35;4.55;;;3.00;99.90;;;;;;5023549;28;20514;-80
2022/01/28 06:45:32;;;;;;;5.70;4.05;;;2.90;99.90;;;;;;5043251;28;20028;-81
2022/01/28 06:47:58;;;;;;;6.20;3.45;;;2.90;99.90;;;;;;5042436;28;20025;-80
2022/01/28 06:50:24;;;;;;;7.35;4.18;;;2.80;99.90;;;;;;5041721;28;20022;-81
2022/01/28 06:52:50;;;;;;;7.95;4.63;;;2.90;99.90;;;;;;5021733;28;20037;-81
2022/01/28 06:55:16;;;;;;;6.13;3.75;;;2.90;99.90;;;;;;5026122;28;20025;-82
2022/01/28 06:57:42;;;;;;;5.47;4.18;;;2.90;99.90;;;;;;5036023;28;20071;-80
2022/01/28 07:00:10;;;;;;;5.70;3.85;;;2.90;99.90;;;;;;5020475;28;20026;-80
2022/01/28 07:02:35;;;;;;;7.97;4.38;;;2.90;99.90;;;;;;5051659;28;20013;-80
2022/01/28 07:05:01;;;;;;;9.13;3.95;;;2.90;99.90;;;;;;5038674;28;20040;-81
2022/01/28 07:07:27;;;;;;;7.57;4.00;;;3.00;99.90;;;;;;5045193;28;20021;-81
2022/01/28 07:09:53;;;;;;;7.07;3.88;;;3.00;99.90;;;;;;5040493;28;20052;-82
2022/01/28 07:12:20;;;;;;;5.72;4.40;;;3.00;99.90;;;;;;5020783;28;20026;-81
2022/01/28 07:14:47;;;;;;;5.72;3.78;;;3.10;99.90;;;;;;5040555;28;20029;-82
2022/01/28 07:17:13;;;;;;;9.35;4.88;;;3.10;99.90;;;;;;5022846;28;20096;-81
2022/01/28 07:19:39;;;;;;;8.25;4.80;;;3.20;99.90;;;;;;5041568;28;20034;-82
2022/01/28 07:22:05;;;;;;;6.32;4.03;;;3.20;99.90;;;;;;5040237;28;20029;-82
2022/01/28 07:24:31;;;;;;;3.67;2.83;;;3.00;99.90;;;;;;5040603;28;20041;-81
2022/01/28 07:26:57;;;;;;;2.13;1.83;;;2.80;99.90;;;;;;5022114;28;20427;-81
2022/01/28 07:29:27;;;;;;;8.18;3.40;;;2.60;99.90;;;;;;5039554;28;20036;-83
2022/01/28 07:31:53;;;;;;;7.60;4.03;;;2.30;99.90;;;;;;5043262;28;20085;-81
2022/01/28 07:34:19;;;;;;;4.85;3.47;;;2.20;99.90;;;;;;5029347;28;20022;-80
2022/01/28 07:36:45;;;;;;;8.52;5.78;;;2.00;99.90;;;;;;5031729;28;20037;-80
2022/01/28 07:39:11;;;;;;;7.63;4.10;;;1.90;99.90;;;;;;5034273;28;20326;-81
2022/01/28 07:41:37;;;;;;;11.20;5.13;;;1.90;99.90;;;;;;5021208;28;20041;-82
2022/01/28 07:44:04;;;;;;;10.13;6.18;;;2.00;99.90;;;;;;5039287;28;20057;-81
2022/01/28 07:46:30;;;;;;;9.13;5.60;;;2.00;99.90;;;;;;5040914;28;20542;-82
2022/01/28 07:48:56;;;;;;;7.28;4.93;;;2.10;99.90;;;;;;5026430;28;20056;-82
2022/01/28 07:51:22;;;;;;;9.73;5.80;;;2.10;99.90;;;;;;5023668;28;20021;-81
2022/01/28 07:53:48;;;;;;;9.40;5.57;;;2.20;99.90;;;;;;5030563;28;20544;-81
2022/01/28 07:56:14;;;;;;;11.82;5.55;;;2.20;99.90;;;;;;5021006;28;20057;-81
2022/01/28 07:58:40;;;;;;;10.00;5.60;;;2.20;99.90;;;;;;5019816;28;20147;-81
2022/01/28 08:01:06;;;;;;;9.68;5.45;;;2.30;99.90;;;;;;5020100;28;20510;-81
2022/01/28 08:03:32;;;;;;;9.85;6.45;;;2.30;99.90;;;;;;5021725;28;20022;-82
2022/01/28 08:05:58;;;;;;;10.02;6.03;;;2.40;99.90;;;;;;5020516;28;20022;-81
2022/01/28 08:08:24;;;;;;;12.20;5.68;;;2.40;99.90;;;;;;5004051;28;20026;-82
2022/01/28 08:10:49;;;;;;;12.95;6.43;;;2.50;99.90;;;;;;5024916;28;20022;-82
2022/01/28 08:13:15;;;;;;;9.82;4.68;;;2.50;99.90;;;;;;5020330;28;20554;-81
2022/01/28 08:15:42;;;;;;;9.18;5.72;;;2.60;99.90;;;;;;5022108;28;20030;-81
2022/01/28 08:18:08;;;;;;;11.05;5.45;;;2.60;99.90;;;;;;5009796;28;20101;-82
2022/01/28 08:20:34;;;;;;;7.90;4.95;;;2.60;99.90;;;;;;5015982;28;20022;-81
2022/01/28 08:23:00;;;;;;;9.68;4.97;;;2.60;99.90;;;;;;5008357;28;20037;-82
2022/01/28 08:25:28;;;;;;;8.20;5.65;;;2.70;99.90;;;;;;5033906;28;20470;-82
2022/01/28 08:27:54;;;;;;;9.60;4.82;;;2.70;99.90;;;;;;5038798;28;20030;-82
2022/01/28 08:30:25;;;;;;;10.00;4.85;;;2.80;99.90;;;;;;5040659;28;20079;-82
2022/01/28 08:32:52;;;;;;;8.25;4.63;;;2.90;99.90;;;;;;5022753;28;20051;-81
2022/01/28 08:35:24;;;;;;;7.28;4.10;;;2.90;99.90;;;;;;5028161;28;20079;-81
2022/01/28 08:37:50;;;;;;;11.27;4.90;;;2.90;99.90;;;;;;5019754;28;20063;-81
2022/01/28 08:40:17;;;;;;;7.22;4.18;;;2.90;99.90;;;;;;5003418;28;20053;-81
2022/01/28 08:42:43;;;;;;;9.50;4.55;;;2.90;99.90;;;;;;5012059;28;20474;-82
2022/01/28 08:45:10;;;;;;;6.70;3.50;;;2.90;99.90;;;;;;5033043;28;20080;-82
2022/01/28 08:47:36;;;;;;;9.27;3.92;;;3.00;99.90;;;;;;5021908;28;20024;-82
2022/01/28 08:50:01;;;;;;;10.23;4.55;;;3.00;99.90;;;;;;5002313;28;20029;-82
2022/01/28 08:52:27;;;;;;;6.85;4.18;;;3.00;99.90;;;;;;5020297;28;20474;-81
2022/01/28 08:54:53;;;;;;;5.72;3.55;;;3.00;99.90;;;;;;5022400;28;20398;-80
2022/01/28 08:57:19;;;;;;;6.40;3.15;;;3.00;99.90;;;;;;5040641;28;20108;-83
2022/01/28 08:59:44;;;;;;;8.98;3.95;;;3.00;99.90;;;;;;5041691;28;20025;-83
2022/01/28 09:02:11;;;;;;;8.07;3.95;;;3.00;99.90;;;;;;5041759;28;20032;-81
2022/01/28 09:04:37;;;;;;;8.43;3.47;;;3.10;99.90;;;;;;5041746;28;20041;-81
2022/01/28 09:07:03;;;;;;;7.28;3.58;;;3.10;99.90;;;;;;5043021;28;20451;-81
2022/01/28 09:09:29;;;;;;;8.75;3.58;;;3.20;99.90;;;;;;5049283;28;20073;-82
2022/01/28 09:14:25;;;;;;;7.35;3.45;;;3.30;99.90;;;;;;5054793;28;20030;-80
2022/01/28 09:16:52;;;;;;;6.03;3.22;;;3.40;99.90;;;;;;5045901;28;20026;-81
2022/01/28 09:19:18;;;;;;;7.13;3.25;;;3.50;99.90;;;;;;5037833;28;20020;-81
2022/01/28 09:21:44;;;;;;;5.47;3.40;;;3.50;99.90;;;;;;5037917;28;20791;-81
2022/01/28 09:24:10;;;;;;;4.95;3.05;;;3.60;99.90;;;;;;5024436;28;20071;-81
2022/01/28 09:26:37;;;;;;;5.68;3.25;;;3.60;99.90;;;;;;5005600;28;20018;-81
2022/01/28 09:29:04;;;;;;;7.80;3.47;;;3.70;99.90;;;;;;5006717;28;20041;-82
2022/01/28 09:31:30;;;;;;;5.05;3.65;;;3.70;99.90;;;;;;5005649;28;20032;-82
2022/01/28 09:33:55;;;;;;;7.20;3.53;;;3.80;99.90;;;;;;5007364;28;20085;-82
2022/01/28 09:36:22;;;;;;;6.85;3.92;;;3.80;99.90;;;;;;5025890;28;20029;-81
2022/01/28 09:38:48;;;;;;;5.15;3.50;;;3.80;99.90;;;;;;5042709;28;20048;-81
2022/01/28 09:41:15;;;;;;;7.00;3.83;;;3.90;99.90;;;;;;5025182;28;20102;-81
2022/01/28 09:43:43;;;;;;;7.10;3.35;;;4.00;99.50;;;;;;5044883;28;20030;-84
2022/01/28 09:46:09;;;;;;;7.68;3.90;;;4.10;99.40;;;;;;5043702;28;20116;-80
2022/01/28 09:48:35;;;;;;;7.28;3.28;;;4.10;99.00;;;;;;5042339;28;20087;-82
2022/01/28 09:51:02;;;;;;;6.13;3.55;;;4.10;99.10;;;;;;5047945;28;20021;-83
2022/01/28 09:53:29;;;;;;;7.25;3.20;;;4.00;99.10;;;;;;5044044;28;20117;-83
2022/01/28 09:55:56;;;;;;;9.55;3.10;;;4.00;98.40;;;;;;5043839;28;20018;-82
2022/01/28 09:58:22;;;;;;;8.50;3.53;;;3.90;98.70;;;;;;5038468;28;20025;-80
2022/01/28 10:00:48;;;;;;;7.18;3.10;;;3.90;98.30;;;;;;5050552;28;20022;-81
2022/01/28 10:03:16;;;;;;;6.22;2.60;;;3.80;98.20;;;;;;5033247;28;20336;-80
2022/01/28 10:05:50;;;;;;;5.07;2.92;;;3.80;98.30;;;;;;5032052;28;20032;-82
2022/01/28 10:08:17;;;;;;;7.22;3.10;;;3.70;98.10;;;;;;5033264;28;20029;-81
2022/01/28 10:10:48;;;;;;;3.60;2.85;;;3.70;97.90;;;;;;5004438;28;20022;-83
2022/01/28 10:13:18;;;;;;;9.32;4.05;;;3.70;98.00;;;;;;5022224;28;20028;-82
2022/01/28 10:15:58;;;;;;;5.95;3.13;;;3.80;97.60;;;;;;5007560;28;20076;-82
2022/01/28 10:18:50;;;;;;;10.40;3.45;;;3.90;97.90;;;;;;5041980;28;20086;-81
2022/01/28 10:21:25;;;;;;;6.43;2.92;;;3.90;97.50;;;;;;5032867;28;20057;-81
2022/01/28 10:24:03;;;;;;;8.88;2.80;;;3.90;97.30;;;;;;5039922;28;20033;-81
2022/01/28 10:26:34;;;;;;;7.70;2.60;;;3.90;97.70;;;;;;5050064;28;20029;-82
2022/01/28 10:29:01;;;;;;;6.97;2.60;;;3.90;96.80;;;;;;5042805;28;20053;-81
2022/01/28 10:31:35;;;;;;;8.52;2.90;;;3.80;96.80;;;;;;5013370;28;20033;-82
2022/01/28 10:34:16;;;;;;;4.85;2.88;;;3.80;97.00;;;;;;5006654;28;20026;-82
2022/01/28 10:36:46;;;;;;;7.15;2.40;;;3.80;96.80;;;;;;5034016;28;20046;-79
2022/01/28 10:39:17;;;;;;;8.60;2.90;;;3.80;96.50;;;;;;5030661;28;20065;-82
2022/01/28 10:41:55;;;;;;;4.22;2.75;;;3.80;96.10;;;;;;5004871;28;20163;-81
2022/01/28 10:44:21;;;;;;;6.57;2.70;;;3.90;95.90;;;;;;5004576;28;20057;-81
2022/01/28 10:46:52;;;;;;;7.32;2.47;;;3.90;96.20;;;;;;5023767;28;20470;-82
2022/01/28 10:49:18;;;;;;;6.10;2.53;;;3.90;95.90;;;;;;5009630;28;20033;-82
2022/01/28 10:51:49;;;;;;;5.75;3.03;;;4.00;96.10;;;;;;5046326;28;20075;-82
2022/01/28 10:54:20;;;;;;;8.02;2.90;;;4.10;95.70;;;;;;5023266;28;20029;-82
2022/01/28 10:56:59;;;;;;;6.28;2.88;;;4.10;95.40;;;;;;5023008;28;20124;-82
2022/01/28 10:59:34;;;;;;;7.05;2.60;;;4.20;95.60;;;;;;5017517;28;20398;-80
2022/01/28 11:02:00;;;;;;;6.47;3.03;;;4.30;95.50;;;;;;5020506;28;20030;-81
2022/01/28 11:04:26;;;;;;;5.72;2.95;;;4.40;95.00;;;;;;5004255;28;20034;-82
2022/01/28 11:06:55;;;;;;;7.13;2.55;;;4.60;94.30;;;;;;5005199;28;20026;-82
2022/01/28 11:09:22;;;;;;;5.75;2.30;;;4.70;93.60;;;;;;5003733;28;20029;-82
2022/01/28 11:11:49;;;;;;;6.78;2.40;;;4.60;92.90;;;;;;5003307;28;20026;-80
2022/01/28 11:14:16;;;;;;;5.70;2.40;;;4.50;93.30;;;;;;5020999;28;20445;-82
2022/01/28 11:16:42;;;;;;;4.40;2.15;;;4.50;93.10;;;;;;5020679;28;20490;-82
2022/01/28 11:19:13;;;;;;;5.00;2.28;;;4.50;93.30;;;;;;5031253;28;20093;-82
2022/01/28 11:21:58;;;;;;;8.48;1.90;;;4.60;92.30;;;;;;5029252;28;20077;-82
2022/01/28 11:25:02;;;;;;;4.00;1.75;;;4.60;91.80;;;;;;5038747;28;20448;-83
2022/01/28 11:27:36;;;;;;;5.43;1.88;;;4.70;92.00;;;;;;5039693;28;20025;-82
2022/01/28 11:30:25;;;;;;;6.05;1.70;;;4.70;91.90;;;;;;5036712;28;20022;-82
2022/01/28 11:33:01;;;;;;;7.10;2.28;;;4.70;92.50;;;;;;5011377;28;20045;-83
2022/01/28 11:35:39;;;;;;;8.15;2.50;;;4.60;92.50;;;;;;5023420;28;20032;-82
2022/01/28 11:38:25;;;;;;;6.45;2.38;;;4.70;92.00;;;;;;5040957;28;20418;-82
2022/01/28 11:41:05;;;;;;;8.15;2.63;;;4.60;91.60;;;;;;5010811;28;20037;-81
2022/01/28 11:43:42;;;;;;;7.47;2.33;;;4.60;91.40;;;;;;5055363;22;20133;-78
2022/01/28 11:46:19;;;;;;;5.90;1.67;;;4.70;91.30;;;;;;5039015;28;20041;-79
2022/01/28 11:49:17;;;;;;;5.20;1.55;;;4.70;90.90;;;;;;5038055;28;20021;-79
2022/01/28 11:51:43;;;;;;;3.30;1.98;;;4.60;91.30;;;;;;5038822;28;20026;-79
2022/01/28 11:54:21;;;;;;;3.67;1.45;;;4.60;91.20;;;;;;5033404;28;20159;-80
2022/01/28 11:56:56;;;;;;;5.75;1.92;;;4.60;91.50;;;;;;5040942;28;20090;-79
2022/01/28 11:59:34;;;;;;;6.10;1.83;;;4.50;91.20;;;;;;5060210;28;20032;-79
2022/01/28 12:02:00;;;;;;;8.93;1.73;;;4.50;90.90;;;;;;5059045;28;20048;-79
2022/01/28 12:04:30;;;;;;;2.20;1.52;;;4.50;90.80;;;;;;5058860;28;20029;-79
2022/01/28 12:07:23;;;;;;;5.35;1.55;;;4.50;90.80;;;;;;5058492;28;20017;-79
2022/01/28 12:10:00;;;;;;;9.55;2.22;;;4.50;91.00;;;;;;5039998;28;20083;-79
2022/01/28 12:12:46;;;;;;;8.95;2.05;;;4.50;90.80;;;;;;5046878;28;20022;-80
2022/01/28 12:15:15;;;;;;;4.45;1.80;;;4.60;90.80;;;;;;5042220;28;20108;-79
2022/01/28 12:17:49;;;;;;;6.30;1.95;;;4.70;90.70;;;;;;5038692;28;20032;-79
2022/01/28 12:20:15;;;;;;;7.93;2.10;;;4.60;90.60;;;;;;5051190;28;20029;-79
2022/01/28 12:22:59;;;;;;;6.60;2.00;;;4.50;91.20;;;;;;5032250;28;20029;-79
2022/01/28 12:25:41;;;;;;;3.78;1.48;;;4.50;91.60;;;;;;5021611;28;20124;-78
2022/01/28 12:28:13;;;;;;;6.03;2.53;;;4.50;90.70;;;;;;5041894;28;20049;-79
2022/01/28 12:30:39;;;;;;;6.57;1.95;;;4.50;91.40;;;;;;5041258;28;20555;-79
2022/01/28 12:33:05;;;;;;;7.57;2.10;;;4.40;92.00;;;;;;5019435;28;20451;-79
2022/01/28 12:35:50;;;;;;;7.03;1.77;;;4.60;91.30;;;;;;5036019;28;20032;-78
2022/01/28 12:38:24;;;;;;;4.18;1.50;;;4.70;90.80;;;;;;5015838;28;20490;-78
2022/01/28 12:41:04;;;;;;;8.85;1.73;;;4.70;90.90;;;;;;5035463;28;20109;-80
2022/01/28 12:43:33;;;;;;;3.63;1.45;;;4.60;90.80;;;;;;5022508;28;20458;-80
2022/01/28 12:46:18;;;;;;;6.20;1.70;;;4.60;90.90;;;;;;5031469;28;20026;-79
2022/01/28 12:48:59;;;;;;;6.65;1.77;;;4.50;91.70;;;;;;5016830;28;20524;-80
2022/01/28 12:51:24;;;;;;;5.93;2.03;;;4.30;92.50;;;;;;5017196;28;20033;-79
2022/01/28 12:53:55;;;;;;;6.90;1.95;;;4.30;93.30;;;;;;5045370;28;20493;-78
2022/01/28 12:56:31;;;;;;;5.47;1.77;;;4.30;93.50;;;;;;5035118;28;20021;-80
2022/01/28 12:58:58;;;;;;;5.47;2.15;;;4.30;93.40;;;;;;5053222;28;20128;-79
2022/01/28 13:01:24;;;;;;;5.38;2.42;;;4.20;93.30;;;;;;5053950;28;20379;-79
2022/01/28 13:04:11;;;;;;;5.97;2.05;;;4.20;93.50;;;;;;5047428;28;20025;-80
2022/01/28 13:09:28;;;;;;;6.53;2.40;;;4.30;94.30;;;;;;5034155;28;20029;-80
2022/01/28 13:11:57;;;;;;;7.82;2.33;;;4.30;94.00;;;;;;5034448;28;20021;-80
2022/01/28 13:14:36;;;;;;;10.00;2.83;;;4.40;93.90;;;;;;5037045;28;20030;-79
2022/01/28 13:17:06;;;;;;;12.90;2.25;;;4.50;93.50;;;;;;5000725;28;20033;-79
2022/01/28 13:20:14;;;;;;;3.92;1.70;;;4.50;93.40;;;;;;4996341;28;20026;-79
2022/01/28 13:22:48;;;;;;;4.40;2.22;;;4.50;92.90;;;;;;5013892;28;20454;-79
2022/01/28 13:25:30;;;;;;;6.22;2.10;;;4.40;92.70;;;;;;5024059;28;20029;-79
2022/01/28 13:28:00;;;;;;;5.00;1.97;;;4.40;93.00;;;;;;5036431;28;20036;-79
2022/01/28 13:30:28;;;;;;;5.18;1.80;;;4.30;92.70;;;;;;5061059;28;20032;-79
2022/01/28 13:33:02;;;;;;;7.28;2.03;;;4.30;93.10;;;;;;5062434;28;20021;-79
2022/01/28 13:35:27;;;;;;;8.65;1.80;;;4.20;93.00;;;;;;5049878;28;20068;-79
2022/01/28 13:38:01;;;;;;;6.40;2.13;;;4.20;93.40;;;;;;5038750;28;20088;-79
2022/01/28 13:40:27;;;;;;;7.72;2.10;;;4.30;93.40;;;;;;5036800;28;20025;-80
2022/01/28 13:42:56;;;;;;;5.95;1.42;;;4.40;93.10;;;;;;5037691;28;20032;-80
2022/01/28 13:45:53;;;;;;;9.48;2.20;;;4.60;92.80;;;;;;5035783;28;20030;-79
2022/01/28 13:48:32;;;;;;;7.03;1.95;;;4.70;91.80;;;;;;5014671;28;20049;-80
2022/01/28 13:51:08;;;;;;;8.85;1.67;;;4.70;91.50;;;;;;5015784;28;20074;-80
2022/01/28 13:56:37;;;;;;;5.38;1.70;;;4.60;89.80;;;;;;5049404;28;20097;-80
2022/01/28 13:59:25;;;;;;;3.70;1.65;;;4.60;89.40;;;;;;5057397;28;20341;-79
2022/01/28 14:01:54;;;;;;;5.00;1.48;;;4.50;88.80;;;;;;5040215;28;20028;-79
2022/01/28 14:04:21;;;;;;;4.13;1.45;;;4.50;89.20;;;;;;5039336;28;20032;-79
2022/01/28 14:06:47;;;;;;;3.60;1.30;;;4.40;89.50;;;;;;5041865;28;20394;-79
2022/01/28 14:09:18;;;;;;;7.00;1.58;;;4.50;89.50;;;;;;5037403;28;20018;-79
2022/01/28 14:11:50;;;;;;;3.75;1.15;;;4.50;89.70;;;;;;5036893;28;20025;-79
2022/01/28 14:14:27;;;;;;;3.28;1.30;;;4.60;88.60;;;;;;5021776;28;20434;-79
2022/01/28 14:16:57;;;;;;;5.55;1.13;;;4.70;88.10;;;;;;5049603;28;20052;-78
2022/01/28 14:19:24;;;;;;;5.25;1.50;;;4.60;87.50;;;;;;5056794;28;20556;-79
2022/01/28 14:21:51;;;;;;;4.90;1.20;;;4.70;86.80;;;;;;5056571;28;20029;-80
2022/01/28 14:24:20;;;;;;;7.95;1.38;;;4.70;86.40;;;;;;5056363;28;20032;-79
2022/01/28 14:26:57;;;;;;;6.25;1.73;;;4.70;85.50;;;;;;5056160;28;20103;-80
2022/01/28 14:32:06;;;;;;;3.92;0.93;;;4.70;84.80;;;;;;5056709;28;20036;-78
2022/01/28 14:34:33;;;;;;;7.90;1.30;;;4.70;84.10;;;;;;5037342;28;20033;-79
2022/01/28 14:36:59;;;;;;;3.35;1.33;;;4.80;83.60;;;;;;5048493;28;20516;-79
2022/01/28 14:39:25;;;;;;;6.43;1.65;;;4.70;83.80;;;;;;5018551;28;20097;-80
2022/01/28 14:41:53;;;;;;;7.30;1.35;;;4.70;84.00;;;;;;5036098;28;20036;-79
2022/01/28 14:44:19;;;;;;;5.50;1.75;;;4.60;84.80;;;;;;5038014;28;20033;-79
2022/01/28 14:46:45;;;;;;;4.68;1.17;;;4.60;84.60;;;;;;5037615;28;20413;-79
2022/01/28 14:49:11;;;;;;;10.98;1.42;;;4.50;84.40;;;;;;5035804;28;20453;-79
2022/01/28 14:51:38;;;;;;;4.60;1.30;;;4.50;84.40;;;;;;5035934;28;20493;-79
2022/01/28 14:54:06;;;;;;;5.43;1.95;;;4.50;83.80;;;;;;5035278;28;20017;-79
2022/01/28 14:56:32;;;;;;;5.18;2.30;;;4.40;83.80;;;;;;5035511;28;20032;-79
2022/01/28 14:59:00;;;;;;;5.90;1.08;;;4.40;84.10;;;;;;5052444;28;20381;-79